Time;durP1;ratioP1;P1;durP2;ratioP2;P2;SDS_P1;SDS_P2;PMS_P1;PMS_P2;Temp;Humidity;BMP_temperature;BMP_pressure;BME280_temperature;BME280_humidity;BME280_pressure;Samples;Min_cycle;Max_cycle;Signal;HPM_P1;HPM_P2
2022/12/07 00:01:10;;;;;;;14.17;10.50;;;4.00;98.00;;;;;;5001138;28;20642;-88
2022/12/07 00:03:38;;;;;;;13.67;10.50;;;3.90;98.00;;;;;;4999884;28;20215;-88
2022/12/07 00:06:13;;;;;;;13.33;9.97;;;3.90;98.30;;;;;;4998698;28;20294;-87
2022/12/07 00:08:40;;;;;;;13.50;10.23;;;4.00;97.50;;;;;;5008567;28;20794;-87
2022/12/07 00:11:09;;;;;;;12.47;9.23;;;3.90;97.50;;;;;;4997290;28;20299;-89
2022/12/07 00:13:37;;;;;;;13.57;9.57;;;4.00;97.80;;;;;;5007845;28;20641;-87
2022/12/07 00:16:06;;;;;;;11.43;8.90;;;4.00;97.50;;;;;;5001796;28;20217;-87
2022/12/07 00:18:35;;;;;;;11.87;9.17;;;4.00;97.10;;;;;;5008595;28;20626;-87
2022/12/07 00:21:03;;;;;;;12.80;9.50;;;3.90;97.50;;;;;;5014353;28;20215;-87
2022/12/07 00:23:30;;;;;;;11.50;8.97;;;3.90;97.50;;;;;;5009555;28;20210;-87
2022/12/07 00:25:57;;;;;;;16.77;12.17;;;3.90;97.50;;;;;;5008861;28;20242;-87
2022/12/07 00:28:29;;;;;;;11.33;8.80;;;4.00;97.30;;;;;;5002124;28;20200;-87
2022/12/07 00:31:02;;;;;;;10.77;8.43;;;4.00;96.90;;;;;;5010101;28;20680;-88
2022/12/07 00:33:29;;;;;;;10.73;8.67;;;4.00;96.90;;;;;;5011660;28;20206;-87
2022/12/07 00:35:58;;;;;;;10.60;8.33;;;3.90;97.10;;;;;;5006455;28;20683;-89
2022/12/07 00:38:25;;;;;;;11.37;8.60;;;3.90;97.30;;;;;;5007647;28;20203;-88
2022/12/07 00:40:56;;;;;;;11.13;8.73;;;3.80;97.20;;;;;;5009899;28;20298;-86
2022/12/07 00:43:23;;;;;;;9.93;8.17;;;3.90;97.50;;;;;;5007755;28;20234;-88
2022/12/07 00:45:50;;;;;;;9.83;8.03;;;3.80;97.50;;;;;;5011624;28;20233;-87
2022/12/07 00:48:17;;;;;;;9.07;7.73;;;3.90;97.50;;;;;;5009646;28;20212;-88
2022/12/07 00:50:47;;;;;;;10.90;8.33;;;4.00;97.10;;;;;;5012475;28;20252;-87
2022/12/07 00:53:16;;;;;;;9.53;8.27;;;4.00;96.80;;;;;;5004782;28;20231;-88
2022/12/07 00:55:43;;;;;;;10.43;8.23;;;4.00;96.80;;;;;;5008583;28;20302;-87
2022/12/07 00:58:10;;;;;;;10.23;8.37;;;3.90;97.10;;;;;;5006730;28;20225;-87
2022/12/07 01:00:39;;;;;;;9.40;8.33;;;3.90;97.30;;;;;;5007054;28;20254;-87
2022/12/07 01:03:08;;;;;;;9.77;7.90;;;3.80;97.30;;;;;;5008790;28;20206;-87
2022/12/07 01:05:35;;;;;;;10.00;8.40;;;3.80;97.40;;;;;;5011667;28;20664;-87
2022/12/07 01:08:02;;;;;;;9.77;7.97;;;3.80;97.40;;;;;;5007042;28;20207;-87
2022/12/07 01:10:31;;;;;;;9.67;7.73;;;3.80;97.30;;;;;;5014104;28;20230;-87
2022/12/07 01:12:59;;;;;;;9.10;8.20;;;3.80;97.10;;;;;;5005430;28;20207;-87
2022/12/07 01:15:26;;;;;;;9.17;7.80;;;3.80;96.60;;;;;;5009601;28;20310;-88
2022/12/07 01:17:54;;;;;;;10.17;8.20;;;3.70;96.80;;;;;;5010698;28;20556;-88
2022/12/07 01:20:21;;;;;;;11.63;7.87;;;3.60;97.10;;;;;;5010787;28;20203;-87
2022/12/07 01:22:48;;;;;;;8.70;7.30;;;3.60;97.40;;;;;;5003139;28;20294;-89
2022/12/07 01:25:15;;;;;;;8.53;7.13;;;3.60;97.70;;;;;;5006003;28;20291;-87
2022/12/07 01:27:43;;;;;;;9.43;7.90;;;3.60;97.60;;;;;;5013116;28;20203;-88
2022/12/07 01:30:12;;;;;;;11.23;7.80;;;3.60;97.40;;;;;;5005682;28;20358;-88
2022/12/07 01:32:39;;;;;;;9.83;7.50;;;3.70;97.40;;;;;;5006123;28;20672;-87
2022/12/07 01:35:06;;;;;;;9.03;7.30;;;3.60;97.40;;;;;;5003992;28;20343;-87
2022/12/07 01:37:36;;;;;;;9.33;7.67;;;3.60;97.30;;;;;;5010781;28;20320;-88
2022/12/07 01:40:05;;;;;;;11.57;7.33;;;3.60;97.40;;;;;;5005567;28;20214;-87
2022/12/07 01:42:32;;;;;;;10.17;7.73;;;3.80;97.10;;;;;;5006220;28;20587;-87
2022/12/07 01:45:45;;;;;;;8.23;7.07;;;3.80;96.80;;;;;;5002665;28;20346;-89
2022/12/07 01:48:17;;;;;;;9.27;7.10;;;3.90;96.80;;;;;;5003240;28;20575;-87
2022/12/07 01:50:46;;;;;;;8.63;7.50;;;3.80;96.70;;;;;;5008961;28;20237;-88
2022/12/07 01:53:13;;;;;;;8.60;7.03;;;3.70;96.90;;;;;;5005214;28;20223;-88
2022/12/07 01:55:44;;;;;;;8.83;7.00;;;3.70;96.80;;;;;;5004922;28;20208;-87
2022/12/07 01:58:13;;;;;;;7.70;6.90;;;3.80;96.60;;;;;;5002975;28;20218;-87
2022/12/07 02:00:41;;;;;;;9.47;7.90;;;3.70;96.80;;;;;;5000689;28;20204;-87
2022/12/07 02:03:16;;;;;;;8.90;7.60;;;3.60;96.90;;;;;;5007916;28;20199;-87
2022/12/07 02:05:44;;;;;;;9.97;7.43;;;3.60;96.90;;;;;;5005368;28;20313;-87
2022/12/07 02:08:18;;;;;;;8.97;7.63;;;3.60;97.00;;;;;;5006255;28;20214;-87
2022/12/07 02:10:47;;;;;;;9.70;7.63;;;3.50;97.00;;;;;;5009201;28;20238;-88
2022/12/07 02:13:17;;;;;;;9.47;7.33;;;3.50;97.70;;;;;;5008893;28;20208;-87
2022/12/07 02:16:19;;;;;;;8.80;6.80;;;3.50;97.40;;;;;;4999391;28;20238;-87
2022/12/07 02:19:01;;;;;;;8.57;7.20;;;3.50;97.40;;;;;;5005098;28;20238;-87
2022/12/07 02:21:39;;;;;;;8.93;7.43;;;3.50;97.40;;;;;;5012308;28;20641;-87
2022/12/07 02:24:43;;;;;;;9.67;7.97;;;3.50;97.50;;;;;;4998228;28;20211;-88
2022/12/07 02:27:38;;;;;;;9.80;7.77;;;3.60;97.40;;;;;;4922514;29;20210;-88
2022/12/07 02:30:14;;;;;;;9.90;7.90;;;3.60;97.30;;;;;;4928068;29;20234;-88
2022/12/07 02:32:50;;;;;;;10.00;7.70;;;3.50;97.40;;;;;;4926604;29;20216;-88
2022/12/07 02:35:21;;;;;;;9.40;7.77;;;3.50;97.70;;;;;;4914924;29;20210;-88
2022/12/07 02:37:59;;;;;;;12.20;8.17;;;3.50;97.60;;;;;;4933797;29;20209;-87
2022/12/07 02:40:32;;;;;;;10.10;8.17;;;3.60;97.40;;;;;;4928950;29;20218;-87
2022/12/07 02:43:05;;;;;;;10.37;7.60;;;3.60;97.40;;;;;;4908644;29;20607;-87
2022/12/07 02:45:36;;;;;;;9.23;7.60;;;3.70;97.20;;;;;;4922242;29;20215;-88
2022/12/07 02:48:04;;;;;;;10.87;7.77;;;3.80;96.70;;;;;;4925750;29;20228;-87
2022/12/07 02:50:31;;;;;;;10.87;7.83;;;3.70;97.10;;;;;;4929960;29;20604;-87
2022/12/07 02:52:58;;;;;;;10.83;8.10;;;3.60;97.40;;;;;;4931632;29;20201;-86
2022/12/07 02:55:34;;;;;;;8.97;7.60;;;3.50;97.80;;;;;;4906807;29;20214;-87
2022/12/07 02:58:16;;;;;;;11.17;7.97;;;3.40;98.20;;;;;;4924070;29;20209;-88
2022/12/07 03:00:53;;;;;;;9.50;7.70;;;3.40;98.10;;;;;;4915599;29;20213;-86
2022/12/07 03:03:20;;;;;;;10.57;8.27;;;3.50;98.30;;;;;;4951944;28;20599;-87
2022/12/07 03:06:02;;;;;;;12.43;7.93;;;3.50;97.70;;;;;;4992867;28;20204;-87
2022/12/07 03:08:38;;;;;;;9.60;7.63;;;3.50;97.90;;;;;;4996929;28;20214;-87
2022/12/07 03:11:08;;;;;;;10.73;8.07;;;3.50;97.70;;;;;;4997565;28;20234;-87
2022/12/07 03:13:42;;;;;;;9.63;7.83;;;3.50;98.00;;;;;;5007819;28;20203;-87
2022/12/07 03:16:16;;;;;;;10.90;7.90;;;3.50;98.10;;;;;;5003126;28;20200;-87
2022/12/07 03:18:48;;;;;;;9.20;7.70;;;3.60;98.10;;;;;;5003053;28;20569;-87
2022/12/07 03:21:18;;;;;;;9.20;7.33;;;3.70;98.00;;;;;;5006581;28;20593;-87
2022/12/07 03:23:49;;;;;;;9.37;8.27;;;3.70;97.70;;;;;;5002456;28;20997;-87
2022/12/07 03:26:19;;;;;;;9.07;7.30;;;3.80;97.50;;;;;;5002689;28;20207;-87
2022/12/07 03:28:52;;;;;;;10.60;7.53;;;3.90;97.60;;;;;;5002669;28;20213;-87
2022/12/07 03:31:25;;;;;;;10.33;7.90;;;3.80;97.10;;;;;;5008014;28;20223;-87
2022/12/07 03:33:59;;;;;;;9.93;7.90;;;3.80;97.40;;;;;;4987236;28;20208;-87
2022/12/07 03:36:31;;;;;;;10.47;7.93;;;3.70;97.40;;;;;;5002585;28;20208;-87
2022/12/07 03:39:04;;;;;;;10.23;7.87;;;3.60;97.60;;;;;;5008834;28;20205;-87
2022/12/07 03:41:37;;;;;;;9.87;8.00;;;3.60;97.90;;;;;;5003257;28;20234;-88
2022/12/07 03:44:06;;;;;;;9.43;7.53;;;3.60;98.10;;;;;;5014293;28;20199;-87
2022/12/07 03:46:42;;;;;;;8.63;7.73;;;3.50;98.30;;;;;;5001434;28;20621;-87
2022/12/07 03:49:15;;;;;;;12.10;8.63;;;3.50;97.90;;;;;;5001232;28;20674;-87
2022/12/07 03:51:46;;;;;;;12.83;8.27;;;3.50;98.20;;;;;;5007160;28;20682;-88
2022/12/07 03:54:19;;;;;;;10.03;8.53;;;3.50;98.40;;;;;;5010584;28;20237;-87
2022/12/07 03:56:48;;;;;;;9.87;8.40;;;3.50;98.50;;;;;;5011207;28;20215;-87
2022/12/07 03:59:16;;;;;;;8.77;7.73;;;3.50;98.70;;;;;;5010762;28;20199;-87
2022/12/07 04:01:45;;;;;;;9.17;8.13;;;3.50;98.70;;;;;;5005614;28;20213;-87
2022/12/07 04:04:12;;;;;;;9.53;7.93;;;3.50;98.60;;;;;;5009685;28;20203;-88
2022/12/07 04:06:39;;;;;;;9.23;8.00;;;3.60;98.70;;;;;;5006368;28;20528;-87
2022/12/07 04:09:06;;;;;;;10.77;7.97;;;3.50;98.40;;;;;;5011713;28;20214;-87
2022/12/07 04:11:33;;;;;;;10.23;8.00;;;3.50;98.80;;;;;;5011850;28;20219;-88
2022/12/07 04:14:22;;;;;;;9.40;7.83;;;3.50;98.60;;;;;;5015427;28;20297;-88
2022/12/07 04:16:52;;;;;;;10.63;8.47;;;3.60;98.70;;;;;;5002998;28;20238;-87
2022/12/07 04:19:21;;;;;;;10.90;8.40;;;3.50;98.80;;;;;;5014985;28;20207;-87
2022/12/07 04:21:48;;;;;;;12.03;8.40;;;3.60;98.80;;;;;;5011374;28;20291;-88
2022/12/07 04:24:16;;;;;;;11.73;8.80;;;3.50;98.60;;;;;;5010860;28;20565;-87
2022/12/07 04:26:44;;;;;;;10.57;8.17;;;3.50;98.80;;;;;;5006599;28;20888;-87
2022/12/07 04:29:11;;;;;;;10.90;8.30;;;3.50;98.90;;;;;;5008725;28;20207;-87
2022/12/07 04:31:39;;;;;;;10.97;8.13;;;3.60;98.60;;;;;;5001065;28;20721;-87
2022/12/07 04:34:08;;;;;;;11.27;9.27;;;3.70;98.30;;;;;;5006961;28;20675;-87
2022/12/07 04:36:35;;;;;;;10.87;8.93;;;3.70;98.00;;;;;;5005638;28;20203;-87
2022/12/07 04:39:02;;;;;;;11.67;9.13;;;3.70;98.00;;;;;;5010858;28;20211;-87
2022/12/07 04:41:29;;;;;;;11.63;9.00;;;3.60;98.30;;;;;;5004506;28;20206;-88
2022/12/07 04:44:01;;;;;;;11.80;8.83;;;3.70;98.40;;;;;;5015775;28;20301;-88
2022/12/07 04:46:30;;;;;;;12.20;9.13;;;3.70;98.20;;;;;;5004171;28;20208;-88
2022/12/07 04:48:57;;;;;;;11.87;9.10;;;3.60;98.40;;;;;;5006004;28;20295;-87
2022/12/07 04:51:28;;;;;;;10.50;8.93;;;3.50;98.80;;;;;;4999937;28;20223;-88
2022/12/07 04:53:56;;;;;;;10.63;9.17;;;3.40;99.20;;;;;;4995148;28;20593;-87
2022/12/07 04:56:23;;;;;;;12.57;9.93;;;3.40;99.30;;;;;;5008310;28;20208;-87
2022/12/07 04:58:52;;;;;;;12.50;9.67;;;3.40;99.90;;;;;;5009338;28;20286;-87
2022/12/07 05:01:19;;;;;;;13.13;10.37;;;3.40;99.90;;;;;;5005671;28;20329;-88
2022/12/07 05:03:46;;;;;;;12.67;9.83;;;3.40;99.90;;;;;;5007991;28;20211;-87
2022/12/07 05:06:14;;;;;;;10.53;8.90;;;3.30;99.90;;;;;;5002991;28;20214;-88
2022/12/07 05:08:43;;;;;;;12.67;9.27;;;3.40;99.90;;;;;;5009459;28;20674;-87
2022/12/07 05:11:37;;;;;;;12.20;9.93;;;3.30;99.70;;;;;;5002121;28;20221;-87
2022/12/07 05:14:00;;;;;;;11.00;9.20;;;3.40;99.70;;;;;;5004567;28;20210;-87
2022/12/07 05:16:27;;;;;;;11.07;8.87;;;3.40;99.20;;;;;;5010447;28;20202;-87
2022/12/07 05:18:55;;;;;;;12.57;9.73;;;3.40;99.40;;;;;;5010000;28;20207;-85
2022/12/07 05:21:22;;;;;;;10.20;8.60;;;3.40;99.40;;;;;;5008806;28;20296;-89
2022/12/07 05:23:50;;;;;;;12.10;8.77;;;3.30;99.50;;;;;;5003458;28;20212;-88
2022/12/07 05:26:17;;;;;;;12.77;9.33;;;3.30;99.80;;;;;;5006662;28;20279;-87
2022/12/07 05:28:44;;;;;;;11.20;8.93;;;3.30;99.90;;;;;;5002151;28;20215;-88
2022/12/07 05:31:11;;;;;;;10.20;9.00;;;3.30;99.90;;;;;;5009006;28;20640;-87
2022/12/07 05:33:38;;;;;;;10.73;9.00;;;3.20;99.90;;;;;;4992387;28;20406;-87
2022/12/07 05:36:07;;;;;;;11.47;8.87;;;3.30;99.90;;;;;;4992072;28;20214;-87
2022/12/07 05:38:34;;;;;;;10.17;8.73;;;3.20;99.90;;;;;;5007726;28;20248;-87
2022/12/07 05:41:05;;;;;;;12.07;9.00;;;3.10;99.90;;;;;;5011463;28;20572;-87
2022/12/07 05:43:31;;;;;;;10.80;8.63;;;3.10;99.90;;;;;;5010872;28;20676;-87
2022/12/07 05:45:58;;;;;;;12.47;9.53;;;3.10;99.90;;;;;;5010442;28;20215;-87
2022/12/07 05:48:25;;;;;;;12.87;8.67;;;3.10;99.90;;;;;;5008673;28;20756;-87
2022/12/07 05:50:54;;;;;;;10.60;8.77;;;3.10;99.90;;;;;;5005215;28;20219;-87
2022/12/07 05:53:21;;;;;;;10.67;8.80;;;3.10;99.80;;;;;;5011621;28;20223;-87
2022/12/07 05:55:48;;;;;;;10.20;8.57;;;3.10;99.90;;;;;;5008887;28;20246;-87
2022/12/07 06:01:00;;;;;;;11.67;8.97;;;3.30;99.10;;;;;;5007669;28;20219;-87
2022/12/07 06:03:32;;;;;;;12.47;8.30;;;3.20;99.00;;;;;;5001629;28;20205;-87
2022/12/07 06:05:59;;;;;;;11.67;8.67;;;3.20;98.80;;;;;;5004947;28;20234;-87
2022/12/07 06:08:26;;;;;;;9.97;8.87;;;3.10;99.10;;;;;;5006518;28;20285;-88
2022/12/07 06:12:33;;;;;;;12.07;10.20;;;2.90;99.20;;;;;;4998257;28;20231;-86
2022/12/07 06:13:41;;;;;;;12.10;9.53;;;2.90;99.80;;;;;;5004458;28;20265;-87
2022/12/07 06:16:11;;;;;;;10.73;9.40;;;3.00;99.50;;;;;;5011609;28;20211;-86
2022/12/07 06:18:38;;;;;;;11.17;9.27;;;3.00;99.70;;;;;;5010537;28;20672;-85
2022/12/07 06:21:05;;;;;;;11.23;9.57;;;3.00;99.80;;;;;;5013538;28;20212;-85
2022/12/07 06:23:35;;;;;;;13.80;10.60;;;2.90;99.50;;;;;;5009894;28;20283;-86
2022/12/07 06:26:05;;;;;;;13.80;11.03;;;2.90;99.80;;;;;;5009557;28;20226;-86
2022/12/07 06:28:32;;;;;;;12.90;9.80;;;2.90;99.80;;;;;;5011388;28;20205;-86
2022/12/07 06:31:02;;;;;;;12.90;10.30;;;2.90;99.80;;;;;;5012844;28;20234;-89
2022/12/07 06:33:30;;;;;;;12.23;10.40;;;3.00;99.50;;;;;;5010033;28;20759;-85
2022/12/07 06:35:59;;;;;;;13.07;10.10;;;3.00;99.40;;;;;;5001241;28;20211;-85
2022/12/07 06:38:26;;;;;;;12.93;10.47;;;2.90;99.30;;;;;;5017701;28;20285;-88
2022/12/07 06:40:53;;;;;;;12.33;10.20;;;3.00;99.40;;;;;;5007477;28;20249;-86
2022/12/07 06:43:20;;;;;;;13.70;10.50;;;3.00;99.30;;;;;;5009884;28;20202;-86
2022/12/07 06:45:47;;;;;;;13.77;9.80;;;3.10;99.10;;;;;;5004621;28;20216;-86
2022/12/07 06:48:15;;;;;;;12.47;10.47;;;3.10;99.20;;;;;;5013080;28;20321;-87
2022/12/07 06:50:44;;;;;;;13.70;10.37;;;3.10;99.20;;;;;;5007690;28;20223;-87
2022/12/07 06:53:11;;;;;;;14.07;10.43;;;3.00;99.20;;;;;;5011535;28;20215;-87
2022/12/07 06:55:38;;;;;;;14.03;10.70;;;3.00;99.50;;;;;;5005199;28;20221;-87
2022/12/07 06:58:05;;;;;;;13.13;10.50;;;3.10;99.00;;;;;;5002672;28;20291;-86
2022/12/07 07:00:34;;;;;;;13.47;10.37;;;3.10;99.20;;;;;;5001390;28;20302;-87
2022/12/07 07:03:01;;;;;;;14.40;11.07;;;3.20;99.00;;;;;;4998777;28;20608;-88
2022/12/07 07:05:29;;;;;;;14.03;10.47;;;3.10;99.00;;;;;;5007738;28;20205;-86
2022/12/07 07:07:56;;;;;;;12.07;10.07;;;3.10;99.10;;;;;;5008599;28;20289;-86
2022/12/07 07:10:23;;;;;;;13.03;10.30;;;3.10;99.00;;;;;;5011190;28;20293;-87
2022/12/07 07:12:50;;;;;;;13.70;10.57;;;3.20;98.80;;;;;;4999830;28;20211;-85
2022/12/07 07:15:18;;;;;;;12.67;10.17;;;3.10;98.70;;;;;;5007300;28;20660;-86
2022/12/07 07:17:45;;;;;;;12.03;10.00;;;3.10;98.80;;;;;;5014705;28;20218;-85
2022/12/07 07:20:13;;;;;;;12.87;10.30;;;3.10;98.90;;;;;;5007281;28;20218;-85
2022/12/07 07:22:41;;;;;;;12.00;9.83;;;3.10;99.30;;;;;;4999948;28;20253;-86
2022/12/07 07:25:19;;;;;;;13.03;9.67;;;3.10;99.10;;;;;;5008500;28;20297;-88
2022/12/07 07:27:46;;;;;;;11.53;9.43;;;3.20;99.10;;;;;;5005311;28;20215;-86
2022/12/07 07:30:13;;;;;;;14.80;10.50;;;3.20;98.60;;;;;;5016805;28;20203;-89
2022/12/07 07:32:41;;;;;;;13.40;10.10;;;3.20;98.50;;;;;;5003123;28;20227;-86
2022/12/07 07:35:08;;;;;;;13.73;9.97;;;3.20;98.70;;;;;;5001207;28;20207;-89
2022/12/07 07:37:35;;;;;;;11.60;9.57;;;3.10;98.70;;;;;;5003930;28;20207;-86
2022/12/07 07:40:04;;;;;;;12.53;9.77;;;3.30;98.30;;;;;;5009967;28;20211;-89
2022/12/07 07:42:31;;;;;;;12.77;9.43;;;3.30;97.60;;;;;;5000232;28;20207;-87
2022/12/07 07:44:58;;;;;;;12.07;9.33;;;3.50;97.60;;;;;;4999011;28;20213;-91
2022/12/07 07:47:25;;;;;;;11.17;9.20;;;3.40;97.50;;;;;;5008284;28;20616;-88
2022/12/07 07:49:51;;;;;;;12.83;9.83;;;3.40;98.00;;;;;;5007408;28;20234;-88
2022/12/07 07:52:18;;;;;;;13.10;9.70;;;3.40;97.80;;;;;;5010590;28;20302;-87
2022/12/07 07:54:45;;;;;;;13.23;9.60;;;3.40;97.60;;;;;;5009113;28;20237;-88
2022/12/07 07:57:14;;;;;;;11.13;9.00;;;3.40;97.70;;;;;;5008965;28;20214;-87
2022/12/07 07:59:41;;;;;;;13.00;9.80;;;3.40;97.70;;;;;;5004811;28;20203;-90
2022/12/07 08:02:14;;;;;;;13.40;9.77;;;3.50;97.50;;;;;;5004782;28;20207;-89
2022/12/07 08:04:41;;;;;;;11.67;9.60;;;3.50;97.70;;;;;;5006558;28;20225;-89
2022/12/07 08:07:08;;;;;;;13.40;10.00;;;3.50;97.40;;;;;;5004886;28;20212;-88
2022/12/07 08:09:48;;;;;;;11.40;9.10;;;3.60;97.70;;;;;;5009424;28;20291;-89
2022/12/07 08:12:16;;;;;;;12.80;9.97;;;3.60;97.40;;;;;;5001633;28;20227;-89
2022/12/07 08:14:47;;;;;;;12.43;9.30;;;3.50;97.50;;;;;;5015995;28;20222;-88
2022/12/07 08:17:14;;;;;;;12.23;9.47;;;3.40;97.80;;;;;;5017125;28;20234;-88
2022/12/07 08:19:41;;;;;;;13.53;10.20;;;3.30;97.80;;;;;;5014947;28;20227;-88
2022/12/07 08:22:08;;;;;;;12.77;9.60;;;3.30;98.30;;;;;;5011622;28;20641;-88
2022/12/07 08:24:36;;;;;;;14.43;9.87;;;3.30;98.10;;;;;;5007174;28;20205;-87
2022/12/07 08:27:02;;;;;;;14.47;11.00;;;3.30;97.80;;;;;;5000849;28;20202;-87
2022/12/07 08:29:31;;;;;;;13.03;9.70;;;3.30;98.30;;;;;;4998783;28;20299;-87
2022/12/07 08:32:00;;;;;;;14.13;10.13;;;3.40;98.40;;;;;;5007317;28;20323;-87
2022/12/07 08:34:27;;;;;;;12.20;9.60;;;3.60;97.50;;;;;;4993974;28;20241;-87
2022/12/07 08:36:54;;;;;;;11.67;9.57;;;3.60;97.40;;;;;;5007544;28;20286;-88
2022/12/07 08:39:21;;;;;;;14.73;10.83;;;3.60;97.50;;;;;;5004789;28;20294;-87
2022/12/07 08:41:48;;;;;;;12.87;9.97;;;3.60;97.60;;;;;;5011400;28;20301;-87
2022/12/07 08:44:16;;;;;;;12.00;9.87;;;3.60;97.40;;;;;;5013502;28;20747;-87
2022/12/07 08:46:49;;;;;;;13.37;10.10;;;3.70;97.10;;;;;;5009756;28;20203;-87
2022/12/07 08:49:20;;;;;;;12.93;9.77;;;3.80;96.70;;;;;;5007197;28;20671;-87
2022/12/07 08:51:47;;;;;;;13.10;10.47;;;3.90;96.30;;;;;;5002745;28;20231;-87
2022/12/07 08:54:17;;;;;;;12.03;9.63;;;4.00;95.90;;;;;;5003089;28;20231;-87
2022/12/07 08:56:45;;;;;;;12.57;9.77;;;4.00;96.30;;;;;;5007546;28;20213;-87
2022/12/07 08:59:14;;;;;;;11.63;9.30;;;3.90;96.50;;;;;;5013752;28;20229;-86
2022/12/07 09:01:42;;;;;;;13.47;10.03;;;3.90;96.40;;;;;;5004580;28;20199;-87
2022/12/07 09:04:10;;;;;;;14.93;10.23;;;4.00;96.20;;;;;;5010944;28;20211;-87
2022/12/07 09:06:38;;;;;;;13.17;9.90;;;4.10;96.00;;;;;;5006747;28;20214;-87
2022/12/07 09:09:06;;;;;;;11.93;10.00;;;4.10;95.80;;;;;;5011086;28;20207;-87
2022/12/07 09:11:33;;;;;;;13.33;10.20;;;4.20;95.70;;;;;;5007525;28;20219;-87
2022/12/07 09:14:00;;;;;;;11.80;9.23;;;4.30;95.20;;;;;;5009673;28;20348;-87
2022/12/07 09:16:27;;;;;;;11.27;9.17;;;4.30;94.90;;;;;;5009076;28;20652;-87
2022/12/07 09:18:55;;;;;;;12.43;8.67;;;4.30;94.90;;;;;;5010510;28;20207;-87
2022/12/07 09:21:23;;;;;;;11.77;9.43;;;4.30;94.90;;;;;;5008045;28;20550;-87
2022/12/07 09:23:50;;;;;;;12.80;9.00;;;4.30;94.90;;;;;;5008002;28;20206;-87
2022/12/07 09:26:17;;;;;;;12.00;9.63;;;4.40;95.00;;;;;;5010535;28;20213;-87
2022/12/07 09:28:44;;;;;;;12.53;10.07;;;4.30;94.90;;;;;;5008907;28;20216;-88
2022/12/07 09:31:11;;;;;;;12.90;9.23;;;4.20;95.20;;;;;;5008160;28;20205;-87
2022/12/07 09:33:42;;;;;;;12.77;9.60;;;4.30;95.80;;;;;;5008100;28;20567;-87
2022/12/07 09:36:10;;;;;;;11.63;9.33;;;4.40;94.90;;;;;;5007592;28;20594;-87
2022/12/07 09:38:38;;;;;;;11.53;9.50;;;4.50;95.00;;;;;;5006162;28;20259;-87
2022/12/07 09:41:07;;;;;;;12.07;8.97;;;4.50;95.00;;;;;;5009703;28;20209;-87
2022/12/07 09:43:37;;;;;;;13.23;8.73;;;4.60;93.60;;;;;;5004862;28;20265;-87
2022/12/07 09:46:04;;;;;;;11.07;9.23;;;4.50;93.70;;;;;;5007847;28;20310;-87
2022/12/07 09:48:36;;;;;;;10.07;8.90;;;4.60;93.80;;;;;;5008430;28;20672;-87
2022/12/07 09:51:04;;;;;;;9.30;8.00;;;4.70;94.10;;;;;;5010591;28;20287;-86
2022/12/07 09:53:35;;;;;;;9.83;8.47;;;4.80;93.40;;;;;;5004904;28;20771;-87
2022/12/07 09:56:05;;;;;;;9.67;8.00;;;4.80;92.30;;;;;;5009848;28;20219;-87
2022/12/07 09:58:34;;;;;;;11.17;8.73;;;4.90;91.70;;;;;;5003600;28;20207;-87
2022/12/07 10:01:06;;;;;;;11.73;9.03;;;4.90;93.10;;;;;;5010398;28;20199;-87
2022/12/07 10:03:33;;;;;;;10.63;8.90;;;5.00;92.20;;;;;;5004514;28;20239;-87
2022/12/07 10:06:01;;;;;;;11.77;9.32;;;5.00;92.40;;;;;;5007202;28;20675;-87
2022/12/07 10:08:27;;;;;;;10.77;8.32;;;5.10;92.30;;;;;;5007946;28;20287;-87
2022/12/07 10:10:57;;;;;;;9.85;8.25;;;5.10;92.10;;;;;;5004368;28;20208;-87
2022/12/07 10:13:36;;;;;;;10.75;8.27;;;5.20;90.90;;;;;;5004598;28;20235;-87
2022/12/07 10:16:04;;;;;;;10.68;7.65;;;5.20;90.50;;;;;;5006233;28;20221;-86
2022/12/07 10:18:32;;;;;;;8.95;7.97;;;5.50;89.30;;;;;;5009815;28;20211;-87
2022/12/07 10:21:20;;;;;;;8.63;7.53;;;5.50;89.30;;;;;;5002418;28;20296;-87
2022/12/07 10:24:02;;;;;;;9.40;7.32;;;5.50;87.00;;;;;;5007195;28;20294;-88
2022/12/07 10:26:34;;;;;;;9.00;7.75;;;5.80;84.50;;;;;;5006848;28;20215;-87
2022/12/07 10:29:17;;;;;;;8.40;7.22;;;5.80;84.30;;;;;;5008986;28;20203;-87
2022/12/07 10:31:45;;;;;;;8.60;7.00;;;5.60;85.80;;;;;;5007602;28;20242;-87
2022/12/07 10:34:24;;;;;;;7.78;6.97;;;5.60;84.10;;;;;;5009859;28;20686;-88
2022/12/07 10:36:52;;;;;;;9.48;6.57;;;5.80;85.10;;;;;;5012503;28;20207;-87
2022/12/07 10:39:24;;;;;;;7.60;6.80;;;5.70;82.70;;;;;;5007840;28;20295;-89
2022/12/07 10:41:57;;;;;;;7.70;6.43;;;5.80;82.50;;;;;;5005453;28;20214;-84
2022/12/07 10:44:27;;;;;;;9.27;6.60;;;6.00;81.20;;;;;;5012374;28;20199;-84
2022/12/07 10:47:22;;;;;;;8.15;6.47;;;6.10;81.20;;;;;;5008813;28;20231;-85
2022/12/07 10:50:15;;;;;;;7.25;6.40;;;6.30;74.30;;;;;;5007738;28;20211;-85
2022/12/07 10:53:02;;;;;;;9.48;6.57;;;6.10;74.70;;;;;;4999669;28;20299;-85
2022/12/07 10:55:43;;;;;;;7.45;6.53;;;5.90;78.30;;;;;;5004006;28;20238;-84
2022/12/07 10:58:36;;;;;;;6.82;5.97;;;6.00;80.10;;;;;;5007005;28;20202;-85
2022/12/07 11:01:16;;;;;;;8.98;6.32;;;6.00;78.40;;;;;;5003898;28;20200;-85
2022/12/07 11:04:03;;;;;;;6.45;5.60;;;6.00;78.20;;;;;;5005295;28;20208;-84
2022/12/07 11:06:36;;;;;;;6.65;5.32;;;6.10;75.60;;;;;;5008717;28;20225;-85
2022/12/07 11:09:21;;;;;;;6.80;5.55;;;6.00;75.80;;;;;;5006538;28;20262;-84
2022/12/07 11:12:00;;;;;;;7.85;5.43;;;6.00;75.00;;;;;;5011704;28;20231;-85
2022/12/07 11:14:37;;;;;;;6.32;5.68;;;6.00;72.60;;;;;;5008376;28;20686;-84
2022/12/07 11:17:08;;;;;;;6.43;5.43;;;5.90;76.60;;;;;;5008197;28;20213;-84
2022/12/07 11:19:53;;;;;;;6.13;5.53;;;5.80;77.70;;;;;;5008002;28;20664;-86
2022/12/07 11:22:26;;;;;;;6.47;5.23;;;5.70;77.50;;;;;;5008516;28;20206;-84
2022/12/07 11:25:01;;;;;;;5.28;4.75;;;5.80;78.90;;;;;;5000270;28;20294;-84
2022/12/07 11:27:38;;;;;;;5.73;5.13;;;6.00;76.50;;;;;;5008076;28;20293;-85
2022/12/07 11:30:21;;;;;;;7.45;5.10;;;5.90;77.80;;;;;;5010167;28;20651;-85
2022/12/07 11:33:05;;;;;;;7.57;5.35;;;6.00;76.70;;;;;;5005849;28;20634;-85
2022/12/07 11:35:39;;;;;;;6.93;4.93;;;6.10;75.20;;;;;;4999377;28;20325;-85
2022/12/07 11:38:14;;;;;;;7.18;5.20;;;6.30;71.10;;;;;;5004876;28;20208;-85
2022/12/07 11:40:44;;;;;;;5.90;4.53;;;6.30;71.10;;;;;;5000262;28;20203;-85
2022/12/07 11:43:21;;;;;;;5.10;4.60;;;6.10;70.90;;;;;;5005694;28;20240;-84
2022/12/07 11:45:55;;;;;;;5.60;4.15;;;6.10;63.00;;;;;;5006496;28;20298;-85
2022/12/07 11:48:32;;;;;;;5.22;4.55;;;6.10;58.10;;;;;;5004501;28;20543;-84
2022/12/07 11:51:02;;;;;;;9.35;4.97;;;5.90;60.90;;;;;;5003206;28;20211;-84
2022/12/07 11:53:34;;;;;;;5.90;4.50;;;5.70;67.00;;;;;;5002047;28;20991;-85
2022/12/07 11:56:06;;;;;;;5.07;4.25;;;5.70;67.60;;;;;;4999477;28;20213;-84
2022/12/07 11:58:49;;;;;;;6.15;5.00;;;5.80;63.50;;;;;;5007496;28;20210;-85
2022/12/07 12:01:38;;;;;;;5.40;4.80;;;5.70;64.10;;;;;;5005437;28;20584;-84
2022/12/07 12:04:20;;;;;;;6.50;4.93;;;5.80;67.10;;;;;;5002965;28;20200;-85
2022/12/07 12:06:47;;;;;;;6.78;5.20;;;5.70;70.40;;;;;;5009589;28;20829;-85
2022/12/07 12:09:18;;;;;;;5.65;4.57;;;5.80;67.60;;;;;;5002596;28;20203;-85
2022/12/07 12:12:02;;;;;;;6.88;5.05;;;5.90;61.30;;;;;;5005817;28;20245;-86
2022/12/07 12:14:46;;;;;;;6.07;4.90;;;5.90;57.80;;;;;;5003865;28;20213;-84
2022/12/07 12:17:49;;;;;;;6.33;4.53;;;5.80;58.30;;;;;;5008289;28;20203;-84
2022/12/07 12:20:22;;;;;;;6.23;5.10;;;5.80;62.80;;;;;;5005826;28;20213;-85
2022/12/07 12:22:54;;;;;;;7.67;5.23;;;5.80;62.60;;;;;;5007271;28;20306;-84
2022/12/07 12:25:24;;;;;;;7.97;5.05;;;5.80;61.90;;;;;;5007166;28;20648;-84
2022/12/07 12:27:53;;;;;;;8.15;5.32;;;6.10;61.50;;;;;;5004918;28;20211;-84
2022/12/07 12:30:33;;;;;;;6.43;5.53;;;5.90;62.50;;;;;;5006393;28;20697;-86
2022/12/07 12:33:06;;;;;;;8.10;5.50;;;6.00;65.70;;;;;;5011991;28;20226;-85
2022/12/07 12:35:37;;;;;;;6.90;5.53;;;6.00;64.10;;;;;;5007507;28;20205;-84
2022/12/07 12:38:33;;;;;;;7.00;5.50;;;5.90;67.50;;;;;;5011789;28;20214;-85
2022/12/07 12:41:01;;;;;;;7.22;5.90;;;6.00;66.70;;;;;;5006906;28;20213;-85
2022/12/07 12:43:52;;;;;;;6.72;5.60;;;6.00;66.20;;;;;;5007229;28;20255;-84
2022/12/07 12:46:56;;;;;;;9.25;6.07;;;6.00;70.70;;;;;;5010554;28;20218;-84
2022/12/07 12:49:45;;;;;;;6.93;5.63;;;5.90;70.70;;;;;;5011986;28;20298;-84
2022/12/07 12:52:51;;;;;;;8.38;6.05;;;5.90;73.10;;;;;;5003571;28;20715;-85
2022/12/07 12:55:51;;;;;;;7.15;5.93;;;5.80;74.90;;;;;;5003207;28;20309;-84
2022/12/07 12:58:43;;;;;;;7.05;6.20;;;5.60;77.60;;;;;;5010149;28;20206;-84
2022/12/07 13:01:40;;;;;;;7.82;6.50;;;5.60;77.80;;;;;;5000277;28;20206;-84
2022/12/07 13:04:39;;;;;;;7.97;6.10;;;5.40;78.20;;;;;;5001221;28;20199;-84
2022/12/07 13:07:14;;;;;;;7.57;6.20;;;5.40;76.70;;;;;;5004892;28;20286;-84
2022/12/07 13:09:47;;;;;;;8.20;6.10;;;5.30;77.60;;;;;;5010260;28;20209;-84
2022/12/07 13:12:16;;;;;;;9.00;6.73;;;5.30;81.20;;;;;;5003553;28;20579;-84
2022/12/07 13:14:57;;;;;;;8.68;6.57;;;5.20;81.80;;;;;;5008608;28;20215;-84
2022/12/07 13:17:56;;;;;;;9.87;7.10;;;5.10;80.60;;;;;;4998653;28;20582;-84